sensor_id;sensor_type;location;lat;lon;timestamp;P1;durP1;ratioP1;P2;durP2;ratioP2
19645;SDS011;9971;52.446;13.452;2023-04-24T00:02:25;4.85;;;4.42;;
19645;SDS011;9971;52.446;13.452;2023-04-24T00:07:27;4.97;;;4.55;;
19645;SDS011;9971;52.446;13.452;2023-04-24T00:12:29;5.03;;;4.60;;
19645;SDS011;9971;52.446;13.452;2023-04-24T00:17:32;4.70;;;4.00;;
19645;SDS011;9971;52.446;13.452;2023-04-24T00:22:34;4.03;;;3.67;;
19645;SDS011;9971;52.446;13.452;2023-04-24T00:27:37;4.55;;;4.15;;
19645;SDS011;9971;52.446;13.452;2023-04-24T00:32:39;5.10;;;4.70;;
19645;SDS011;9971;52.446;13.452;2023-04-24T00:37:41;5.05;;;4.20;;
19645;SDS011;9971;52.446;13.452;2023-04-24T00:42:44;7.03;;;5.55;;
19645;SDS011;9971;52.446;13.452;2023-04-24T00:47:46;6.43;;;5.77;;
19645;SDS011;9971;52.446;13.452;2023-04-24T00:52:48;7.70;;;5.70;;
19645;SDS011;9971;52.446;13.452;2023-04-24T00:57:51;5.80;;;4.75;;
19645;SDS011;9971;52.446;13.452;2023-04-24T01:02:53;5.47;;;4.97;;
19645;SDS011;9971;52.446;13.452;2023-04-24T01:07:55;4.65;;;4.25;;
19645;SDS011;9971;52.446;13.452;2023-04-24T01:12:57;4.43;;;4.03;;
19645;SDS011;9971;52.446;13.452;2023-04-24T01:17:59;4.57;;;4.17;;
19645;SDS011;9971;52.446;13.452;2023-04-24T01:23:02;3.75;;;3.45;;
19645;SDS011;9971;52.446;13.452;2023-04-24T01:28:04;3.80;;;3.55;;
19645;SDS011;9971;52.446;13.452;2023-04-24T01:33:07;4.15;;;3.85;;
19645;SDS011;9971;52.446;13.452;2023-04-24T01:38:09;3.70;;;3.40;;
19645;SDS011;9971;52.446;13.452;2023-04-24T01:43:13;4.00;;;3.67;;
19645;SDS011;9971;52.446;13.452;2023-04-24T01:48:16;4.10;;;3.70;;
19645;SDS011;9971;52.446;13.452;2023-04-24T01:53:18;3.65;;;3.35;;
19645;SDS011;9971;52.446;13.452;2023-04-24T01:58:20;3.70;;;3.40;;
19645;SDS011;9971;52.446;13.452;2023-04-24T02:03:22;3.93;;;3.63;;
19645;SDS011;9971;52.446;13.452;2023-04-24T02:08:26;3.40;;;3.10;;
19645;SDS011;9971;52.446;13.452;2023-04-24T02:13:28;4.47;;;4.17;;
19645;SDS011;9971;52.446;13.452;2023-04-24T02:18:31;4.00;;;3.60;;
19645;SDS011;9971;52.446;13.452;2023-04-24T02:23:33;3.75;;;3.45;;
19645;SDS011;9971;52.446;13.452;2023-04-24T02:28:36;3.85;;;3.55;;
19645;SDS011;9971;52.446;13.452;2023-04-24T02:33:40;4.00;;;3.70;;
19645;SDS011;9971;52.446;13.452;2023-04-24T02:38:42;4.03;;;3.72;;
19645;SDS011;9971;52.446;13.452;2023-04-24T02:43:46;3.93;;;3.63;;
19645;SDS011;9971;52.446;13.452;2023-04-24T02:48:49;3.80;;;3.50;;
19645;SDS011;9971;52.446;13.452;2023-04-24T02:53:51;3.40;;;3.20;;
19645;SDS011;9971;52.446;13.452;2023-04-24T02:58:54;4.43;;;4.13;;
19645;SDS011;9971;52.446;13.452;2023-04-24T03:03:56;3.95;;;3.65;;
19645;SDS011;9971;52.446;13.452;2023-04-24T03:08:59;4.37;;;3.90;;
19645;SDS011;9971;52.446;13.452;2023-04-24T03:14:02;3.97;;;3.67;;
19645;SDS011;9971;52.446;13.452;2023-04-24T03:19:04;4.12;;;3.83;;
19645;SDS011;9971;52.446;13.452;2023-04-24T03:24:07;4.60;;;4.20;;
19645;SDS011;9971;52.446;13.452;2023-04-24T03:29:10;4.35;;;4.00;;
19645;SDS011;9971;52.446;13.452;2023-04-24T03:34:12;4.22;;;3.87;;
19645;SDS011;9971;52.446;13.452;2023-04-24T03:39:15;4.60;;;4.03;;
19645;SDS011;9971;52.446;13.452;2023-04-24T03:44:17;4.12;;;3.83;;
19645;SDS011;9971;52.446;13.452;2023-04-24T03:49:20;4.40;;;4.10;;
19645;SDS011;9971;52.446;13.452;2023-04-24T03:54:22;4.10;;;3.80;;
19645;SDS011;9971;52.446;13.452;2023-04-24T03:59:25;3.87;;;3.58;;
19645;SDS011;9971;52.446;13.452;2023-04-24T04:04:27;4.65;;;4.17;;
19645;SDS011;9971;52.446;13.452;2023-04-24T04:09:30;4.08;;;3.77;;
19645;SDS011;9971;52.446;13.452;2023-04-24T04:14:32;4.83;;;4.45;;
19645;SDS011;9971;52.446;13.452;2023-04-24T04:19:36;4.30;;;4.00;;
19645;SDS011;9971;52.446;13.452;2023-04-24T04:24:39;4.20;;;3.90;;
19645;SDS011;9971;52.446;13.452;2023-04-24T04:29:42;4.37;;;4.08;;
19645;SDS011;9971;52.446;13.452;2023-04-24T04:34:45;3.92;;;3.22;;
19645;SDS011;9971;52.446;13.452;2023-04-24T04:39:47;4.28;;;3.87;;
19645;SDS011;9971;52.446;13.452;2023-04-24T04:44:52;3.50;;;3.30;;
19645;SDS011;9971;52.446;13.452;2023-04-24T04:49:53;4.23;;;3.93;;
19645;SDS011;9971;52.446;13.452;2023-04-24T04:54:57;4.05;;;3.75;;
19645;SDS011;9971;52.446;13.452;2023-04-24T04:59:59;3.67;;;3.40;;
19645;SDS011;9971;52.446;13.452;2023-04-24T05:05:02;3.58;;;3.33;;
19645;SDS011;9971;52.446;13.452;2023-04-24T05:10:05;3.27;;;3.07;;
19645;SDS011;9971;52.446;13.452;2023-04-24T05:15:10;2.80;;;2.60;;
19645;SDS011;9971;52.446;13.452;2023-04-24T05:20:13;3.07;;;2.87;;
19645;SDS011;9971;52.446;13.452;2023-04-24T05:25:16;2.60;;;2.40;;
19645;SDS011;9971;52.446;13.452;2023-04-24T05:30:18;2.93;;;2.50;;
19645;SDS011;9971;52.446;13.452;2023-04-24T05:35:24;2.87;;;2.40;;
19645;SDS011;9971;52.446;13.452;2023-04-24T05:40:25;2.55;;;2.37;;
19645;SDS011;9971;52.446;13.452;2023-04-24T05:45:28;2.50;;;2.30;;
19645;SDS011;9971;52.446;13.452;2023-04-24T05:50:31;2.47;;;2.27;;
19645;SDS011;9971;52.446;13.452;2023-04-24T05:55:34;2.40;;;2.27;;
19645;SDS011;9971;52.446;13.452;2023-04-24T06:00:38;2.65;;;2.12;;
19645;SDS011;9971;52.446;13.452;2023-04-24T06:05:39;3.15;;;2.12;;
19645;SDS011;9971;52.446;13.452;2023-04-24T06:10:42;1.80;;;1.70;;
19645;SDS011;9971;52.446;13.452;2023-04-24T06:15:44;2.22;;;1.80;;
19645;SDS011;9971;52.446;13.452;2023-04-24T06:20:47;2.02;;;1.80;;
19645;SDS011;9971;52.446;13.452;2023-04-24T06:25:49;1.87;;;1.65;;
19645;SDS011;9971;52.446;13.452;2023-04-24T06:30:52;1.35;;;1.25;;
19645;SDS011;9971;52.446;13.452;2023-04-24T06:35:54;1.42;;;1.32;;
19645;SDS011;9971;52.446;13.452;2023-04-24T06:40:57;1.62;;;1.37;;
19645;SDS011;9971;52.446;13.452;2023-04-24T06:46:00;1.02;;;0.90;;
19645;SDS011;9971;52.446;13.452;2023-04-24T06:51:03;0.90;;;0.90;;
19645;SDS011;9971;52.446;13.452;2023-04-24T06:56:05;1.42;;;1.32;;
19645;SDS011;9971;52.446;13.452;2023-04-24T07:01:09;1.40;;;1.10;;
19645;SDS011;9971;52.446;13.452;2023-04-24T07:06:11;1.13;;;1.00;;
19645;SDS011;9971;52.446;13.452;2023-04-24T07:11:14;0.70;;;0.70;;
19645;SDS011;9971;52.446;13.452;2023-04-24T07:16:16;2.17;;;0.90;;
19645;SDS011;9971;52.446;13.452;2023-04-24T07:21:19;2.60;;;1.00;;
19645;SDS011;9971;52.446;13.452;2023-04-24T07:26:22;0.88;;;0.80;;
19645;SDS011;9971;52.446;13.452;2023-04-24T07:31:24;0.75;;;0.75;;
19645;SDS011;9971;52.446;13.452;2023-04-24T07:36:27;1.15;;;0.88;;
19645;SDS011;9971;52.446;13.452;2023-04-24T07:41:29;0.80;;;0.80;;
19645;SDS011;9971;52.446;13.452;2023-04-24T07:46:32;0.83;;;0.83;;
19645;SDS011;9971;52.446;13.452;2023-04-24T07:51:35;1.00;;;0.90;;
19645;SDS011;9971;52.446;13.452;2023-04-24T07:56:40;1.17;;;0.62;;
19645;SDS011;9971;52.446;13.452;2023-04-24T08:01:42;0.87;;;0.87;;
19645;SDS011;9971;52.446;13.452;2023-04-24T08:06:47;1.00;;;0.80;;
19645;SDS011;9971;52.446;13.452;2023-04-24T08:11:49;1.60;;;0.87;;
19645;SDS011;9971;52.446;13.452;2023-04-24T08:16:53;0.57;;;0.57;;
19645;SDS011;9971;52.446;13.452;2023-04-24T08:21:56;1.03;;;0.70;;
19645;SDS011;9971;52.446;13.452;2023-04-24T08:26:58;0.50;;;0.50;;
19645;SDS011;9971;52.446;13.452;2023-04-24T08:32:02;1.50;;;0.63;;
19645;SDS011;9971;52.446;13.452;2023-04-24T08:37:04;0.53;;;0.53;;
19645;SDS011;9971;52.446;13.452;2023-04-24T08:42:07;0.63;;;0.63;;
19645;SDS011;9971;52.446;13.452;2023-04-24T08:47:09;0.75;;;0.65;;
19645;SDS011;9971;52.446;13.452;2023-04-24T08:52:11;1.13;;;0.60;;
19645;SDS011;9971;52.446;13.452;2023-04-24T08:57:14;0.47;;;0.47;;
19645;SDS011;9971;52.446;13.452;2023-04-24T09:02:15;0.50;;;0.50;;
19645;SDS011;9971;52.446;13.452;2023-04-24T09:07:18;0.30;;;0.30;;
19645;SDS011;9971;52.446;13.452;2023-04-24T09:12:20;0.63;;;0.63;;
19645;SDS011;9971;52.446;13.452;2023-04-24T09:17:22;0.75;;;0.33;;
19645;SDS011;9971;52.446;13.452;2023-04-24T09:22:24;1.60;;;0.60;;
19645;SDS011;9971;52.446;13.452;2023-04-24T09:27:28;1.43;;;0.70;;
19645;SDS011;9971;52.446;13.452;2023-04-24T09:32:29;1.72;;;0.82;;
19645;SDS011;9971;52.446;13.452;2023-04-24T09:37:34;0.62;;;0.62;;
19645;SDS011;9971;52.446;13.452;2023-04-24T09:42:33;0.67;;;0.67;;
19645;SDS011;9971;52.446;13.452;2023-04-24T09:47:37;0.80;;;0.53;;
19645;SDS011;9971;52.446;13.452;2023-04-24T09:52:41;0.70;;;0.70;;
19645;SDS011;9971;52.446;13.452;2023-04-24T09:57:49;1.03;;;0.50;;
19645;SDS011;9971;52.446;13.452;2023-04-24T10:02:55;1.15;;;0.70;;
19645;SDS011;9971;52.446;13.452;2023-04-24T10:08:04;1.02;;;0.47;;
19645;SDS011;9971;52.446;13.452;2023-04-24T10:13:06;0.50;;;0.50;;
19645;SDS011;9971;52.446;13.452;2023-04-24T10:18:09;1.67;;;0.50;;
19645;SDS011;9971;52.446;13.452;2023-04-24T10:23:10;0.60;;;0.60;;
19645;SDS011;9971;52.446;13.452;2023-04-24T10:28:13;0.43;;;0.43;;
19645;SDS011;9971;52.446;13.452;2023-04-24T10:33:15;0.50;;;0.50;;
19645;SDS011;9971;52.446;13.452;2023-04-24T10:38:18;2.03;;;0.47;;
19645;SDS011;9971;52.446;13.452;2023-04-24T10:43:19;1.10;;;0.70;;
19645;SDS011;9971;52.446;13.452;2023-04-24T10:48:25;0.53;;;0.47;;
19645;SDS011;9971;52.446;13.452;2023-04-24T10:53:27;0.70;;;0.70;;
19645;SDS011;9971;52.446;13.452;2023-04-24T10:58:35;0.70;;;0.70;;
19645;SDS011;9971;52.446;13.452;2023-04-24T11:03:50;0.73;;;0.73;;
19645;SDS011;9971;52.446;13.452;2023-04-24T11:08:44;1.87;;;0.70;;
19645;SDS011;9971;52.446;13.452;2023-04-24T11:14:04;0.50;;;0.50;;
19645;SDS011;9971;52.446;13.452;2023-04-24T11:19:08;0.68;;;0.50;;
19645;SDS011;9971;52.446;13.452;2023-04-24T11:29:22;1.80;;;0.70;;
19645;SDS011;9971;52.446;13.452;2023-04-24T11:34:24;1.03;;;0.87;;
19645;SDS011;9971;52.446;13.452;2023-04-24T11:39:26;1.10;;;1.00;;
19645;SDS011;9971;52.446;13.452;2023-04-24T11:44:29;0.62;;;0.62;;
19645;SDS011;9971;52.446;13.452;2023-04-24T11:49:31;1.50;;;0.80;;
19645;SDS011;9971;52.446;13.452;2023-04-24T11:54:33;1.80;;;0.82;;
19645;SDS011;9971;52.446;13.452;2023-04-24T11:59:36;0.60;;;0.60;;
19645;SDS011;9971;52.446;13.452;2023-04-24T12:04:39;0.80;;;0.80;;
19645;SDS011;9971;52.446;13.452;2023-04-24T12:09:42;1.10;;;0.72;;
19645;SDS011;9971;52.446;13.452;2023-04-24T12:14:47;0.93;;;0.60;;
19645;SDS011;9971;52.446;13.452;2023-04-24T12:19:57;1.22;;;1.00;;
19645;SDS011;9971;52.446;13.452;2023-04-24T12:25:02;1.03;;;0.80;;
19645;SDS011;9971;52.446;13.452;2023-04-24T12:30:03;0.90;;;0.57;;
19645;SDS011;9971;52.446;13.452;2023-04-24T12:35:05;0.60;;;0.60;;
19645;SDS011;9971;52.446;13.452;2023-04-24T12:40:09;0.40;;;0.40;;
19645;SDS011;9971;52.446;13.452;2023-04-24T12:45:10;1.70;;;0.53;;
19645;SDS011;9971;52.446;13.452;2023-04-24T12:50:14;0.60;;;0.60;;
19645;SDS011;9971;52.446;13.452;2023-04-24T12:55:15;0.40;;;0.40;;
19645;SDS011;9971;52.446;13.452;2023-04-24T13:00:18;0.50;;;0.50;;
19645;SDS011;9971;52.446;13.452;2023-04-24T13:05:20;0.40;;;0.35;;
19645;SDS011;9971;52.446;13.452;2023-04-24T13:10:23;1.15;;;0.70;;
19645;SDS011;9971;52.446;13.452;2023-04-24T13:15:25;0.53;;;0.40;;
19645;SDS011;9971;52.446;13.452;2023-04-24T13:20:28;0.67;;;0.60;;
19645;SDS011;9971;52.446;13.452;2023-04-24T13:25:34;0.65;;;0.65;;
19645;SDS011;9971;52.446;13.452;2023-04-24T13:30:32;0.50;;;0.50;;
19645;SDS011;9971;52.446;13.452;2023-04-24T13:35:34;0.37;;;0.35;;
19645;SDS011;9971;52.446;13.452;2023-04-24T13:40:37;0.47;;;0.47;;
19645;SDS011;9971;52.446;13.452;2023-04-24T13:45:39;0.60;;;0.60;;
19645;SDS011;9971;52.446;13.452;2023-04-24T13:50:42;0.82;;;0.42;;
19645;SDS011;9971;52.446;13.452;2023-04-24T13:55:44;5.90;;;5.00;;
19645;SDS011;9971;52.446;13.452;2023-04-24T14:00:47;0.85;;;0.55;;
19645;SDS011;9971;52.446;13.452;2023-04-24T14:05:49;0.82;;;0.80;;
19645;SDS011;9971;52.446;13.452;2023-04-24T14:10:52;0.83;;;0.83;;
19645;SDS011;9971;52.446;13.452;2023-04-24T14:15:54;0.42;;;0.40;;
19645;SDS011;9971;52.446;13.452;2023-04-24T14:20:57;0.60;;;0.60;;
19645;SDS011;9971;52.446;13.452;2023-04-24T14:25:58;0.60;;;0.57;;
19645;SDS011;9971;52.446;13.452;2023-04-24T14:31:01;0.50;;;0.50;;
19645;SDS011;9971;52.446;13.452;2023-04-24T14:36:03;0.60;;;0.60;;
19645;SDS011;9971;52.446;13.452;2023-04-24T14:41:05;0.70;;;0.70;;
19645;SDS011;9971;52.446;13.452;2023-04-24T14:46:07;1.35;;;0.75;;
19645;SDS011;9971;52.446;13.452;2023-04-24T14:51:10;0.50;;;0.50;;
19645;SDS011;9971;52.446;13.452;2023-04-24T14:56:12;0.80;;;0.80;;
19645;SDS011;9971;52.446;13.452;2023-04-24T15:01:15;0.47;;;0.47;;
19645;SDS011;9971;52.446;13.452;2023-04-24T15:06:17;2.22;;;0.75;;
19645;SDS011;9971;52.446;13.452;2023-04-24T15:11:19;1.00;;;0.80;;
19645;SDS011;9971;52.446;13.452;2023-04-24T15:16:22;0.80;;;0.75;;
19645;SDS011;9971;52.446;13.452;2023-04-24T15:21:24;0.87;;;0.87;;
19645;SDS011;9971;52.446;13.452;2023-04-24T15:26:26;0.88;;;0.68;;
19645;SDS011;9971;52.446;13.452;2023-04-24T15:31:28;2.30;;;0.90;;
19645;SDS011;9971;52.446;13.452;2023-04-24T15:36:31;0.90;;;0.90;;
19645;SDS011;9971;52.446;13.452;2023-04-24T15:41:33;2.70;;;0.90;;
19645;SDS011;9971;52.446;13.452;2023-04-24T15:46:35;1.50;;;0.72;;
19645;SDS011;9971;52.446;13.452;2023-04-24T15:51:38;0.78;;;0.78;;
19645;SDS011;9971;52.446;13.452;2023-04-24T15:56:41;1.10;;;0.78;;
19645;SDS011;9971;52.446;13.452;2023-04-24T16:01:43;1.27;;;0.90;;
19645;SDS011;9971;52.446;13.452;2023-04-24T16:06:45;0.78;;;0.75;;
19645;SDS011;9971;52.446;13.452;2023-04-24T16:11:48;1.10;;;1.00;;
19645;SDS011;9971;52.446;13.452;2023-04-24T16:16:50;3.22;;;0.72;;
19645;SDS011;9971;52.446;13.452;2023-04-24T16:21:52;0.72;;;0.72;;
19645;SDS011;9971;52.446;13.452;2023-04-24T16:26:55;1.07;;;0.85;;
19645;SDS011;9971;52.446;13.452;2023-04-24T16:31:57;0.80;;;0.80;;
19645;SDS011;9971;52.446;13.452;2023-04-24T16:36:59;0.93;;;0.72;;
19645;SDS011;9971;52.446;13.452;2023-04-24T16:42:02;0.83;;;0.83;;
19645;SDS011;9971;52.446;13.452;2023-04-24T16:47:05;0.85;;;0.85;;
19645;SDS011;9971;52.446;13.452;2023-04-24T16:52:07;1.05;;;1.05;;
19645;SDS011;9971;52.446;13.452;2023-04-24T16:57:09;0.60;;;0.60;;
19645;SDS011;9971;52.446;13.452;2023-04-24T17:02:11;0.60;;;0.60;;
19645;SDS011;9971;52.446;13.452;2023-04-24T17:07:14;0.60;;;0.60;;
19645;SDS011;9971;52.446;13.452;2023-04-24T17:12:16;0.68;;;0.68;;
19645;SDS011;9971;52.446;13.452;2023-04-24T17:17:19;1.00;;;0.90;;
19645;SDS011;9971;52.446;13.452;2023-04-24T17:22:21;0.70;;;0.70;;
19645;SDS011;9971;52.446;13.452;2023-04-24T17:27:23;0.72;;;0.72;;
19645;SDS011;9971;52.446;13.452;2023-04-24T17:32:26;0.98;;;0.80;;
19645;SDS011;9971;52.446;13.452;2023-04-24T17:37:28;0.75;;;0.75;;
19645;SDS011;9971;52.446;13.452;2023-04-24T17:42:31;0.80;;;0.80;;
19645;SDS011;9971;52.446;13.452;2023-04-24T17:47:33;1.42;;;0.50;;
19645;SDS011;9971;52.446;13.452;2023-04-24T17:52:36;1.25;;;0.93;;
19645;SDS011;9971;52.446;13.452;2023-04-24T17:57:39;0.70;;;0.70;;
19645;SDS011;9971;52.446;13.452;2023-04-24T18:02:41;1.80;;;0.82;;
19645;SDS011;9971;52.446;13.452;2023-04-24T18:07:44;1.00;;;1.00;;
19645;SDS011;9971;52.446;13.452;2023-04-24T18:12:46;0.68;;;0.68;;
19645;SDS011;9971;52.446;13.452;2023-04-24T18:17:49;0.60;;;0.60;;
19645;SDS011;9971;52.446;13.452;2023-04-24T18:22:51;1.45;;;0.62;;
19645;SDS011;9971;52.446;13.452;2023-04-24T18:27:53;0.72;;;0.70;;
19645;SDS011;9971;52.446;13.452;2023-04-24T18:32:56;1.32;;;1.20;;
19645;SDS011;9971;52.446;13.452;2023-04-24T18:37:59;0.45;;;0.45;;
19645;SDS011;9971;52.446;13.452;2023-04-24T18:43:01;0.62;;;0.42;;
19645;SDS011;9971;52.446;13.452;2023-04-24T18:48:04;0.40;;;0.40;;
19645;SDS011;9971;52.446;13.452;2023-04-24T18:53:07;0.47;;;0.30;;
19645;SDS011;9971;52.446;13.452;2023-04-24T18:58:09;0.20;;;0.20;;
19645;SDS011;9971;52.446;13.452;2023-04-24T19:03:11;1.27;;;0.40;;
19645;SDS011;9971;52.446;13.452;2023-04-24T19:08:14;0.35;;;0.35;;
19645;SDS011;9971;52.446;13.452;2023-04-24T19:13:16;0.35;;;0.35;;
19645;SDS011;9971;52.446;13.452;2023-04-24T19:18:19;0.50;;;0.50;;
19645;SDS011;9971;52.446;13.452;2023-04-24T19:23:22;0.78;;;0.78;;
19645;SDS011;9971;52.446;13.452;2023-04-24T19:28:23;0.73;;;0.70;;
19645;SDS011;9971;52.446;13.452;2023-04-24T19:33:27;0.50;;;0.50;;
19645;SDS011;9971;52.446;13.452;2023-04-24T19:38:28;0.47;;;0.47;;
19645;SDS011;9971;52.446;13.452;2023-04-24T19:43:31;0.85;;;0.85;;
19645;SDS011;9971;52.446;13.452;2023-04-24T19:48:33;1.70;;;1.00;;
19645;SDS011;9971;52.446;13.452;2023-04-24T19:53:36;1.25;;;1.15;;
19645;SDS011;9971;52.446;13.452;2023-04-24T19:58:38;1.10;;;1.05;;
19645;SDS011;9971;52.446;13.452;2023-04-24T20:03:40;1.20;;;1.02;;
19645;SDS011;9971;52.446;13.452;2023-04-24T20:08:43;1.22;;;1.10;;
19645;SDS011;9971;52.446;13.452;2023-04-24T20:13:45;1.97;;;1.23;;
19645;SDS011;9971;52.446;13.452;2023-04-24T20:18:47;1.70;;;1.30;;
19645;SDS011;9971;52.446;13.452;2023-04-24T20:23:51;1.35;;;1.25;;
19645;SDS011;9971;52.446;13.452;2023-04-24T20:28:54;2.50;;;1.27;;
19645;SDS011;9971;52.446;13.452;2023-04-24T20:33:56;2.17;;;1.35;;
19645;SDS011;9971;52.446;13.452;2023-04-24T20:38:59;1.57;;;1.45;;
19645;SDS011;9971;52.446;13.452;2023-04-24T20:44:01;1.43;;;1.33;;
19645;SDS011;9971;52.446;13.452;2023-04-24T20:49:03;1.47;;;1.37;;
19645;SDS011;9971;52.446;13.452;2023-04-24T20:54:05;1.27;;;1.17;;
19645;SDS011;9971;52.446;13.452;2023-04-24T20:59:08;2.27;;;1.50;;
19645;SDS011;9971;52.446;13.452;2023-04-24T21:04:10;1.60;;;1.50;;
19645;SDS011;9971;52.446;13.452;2023-04-24T21:09:13;1.82;;;1.40;;
19645;SDS011;9971;52.446;13.452;2023-04-24T21:14:15;3.17;;;1.72;;
19645;SDS011;9971;52.446;13.452;2023-04-24T21:19:17;1.70;;;1.60;;
19645;SDS011;9971;52.446;13.452;2023-04-24T21:24:21;2.92;;;1.72;;
19645;SDS011;9971;52.446;13.452;2023-04-24T21:29:24;2.57;;;2.37;;
19645;SDS011;9971;52.446;13.452;2023-04-24T21:34:26;2.57;;;1.97;;
19645;SDS011;9971;52.446;13.452;2023-04-24T21:39:28;2.00;;;1.80;;
19645;SDS011;9971;52.446;13.452;2023-04-24T21:44:31;3.50;;;1.82;;
19645;SDS011;9971;52.446;13.452;2023-04-24T21:49:33;5.03;;;2.08;;
19645;SDS011;9971;52.446;13.452;2023-04-24T21:54:36;2.27;;;2.08;;
19645;SDS011;9971;52.446;13.452;2023-04-24T21:59:38;3.52;;;2.00;;
19645;SDS011;9971;52.446;13.452;2023-04-24T22:04:41;3.13;;;2.47;;
19645;SDS011;9971;52.446;13.452;2023-04-24T22:09:43;2.83;;;2.20;;
19645;SDS011;9971;52.446;13.452;2023-04-24T22:14:47;2.63;;;2.00;;
19645;SDS011;9971;52.446;13.452;2023-04-24T22:19:49;2.67;;;2.02;;
19645;SDS011;9971;52.446;13.452;2023-04-24T22:24:52;2.42;;;2.00;;
19645;SDS011;9971;52.446;13.452;2023-04-24T22:29:54;2.17;;;1.93;;
19645;SDS011;9971;52.446;13.452;2023-04-24T22:34:56;1.92;;;1.82;;
19645;SDS011;9971;52.446;13.452;2023-04-24T22:39:58;2.70;;;2.00;;
19645;SDS011;9971;52.446;13.452;2023-04-24T22:45:01;2.30;;;1.90;;
19645;SDS011;9971;52.446;13.452;2023-04-24T22:50:03;2.67;;;2.30;;
19645;SDS011;9971;52.446;13.452;2023-04-24T22:55:06;2.45;;;2.12;;
19645;SDS011;9971;52.446;13.452;2023-04-24T23:00:09;3.27;;;2.23;;
19645;SDS011;9971;52.446;13.452;2023-04-24T23:05:12;3.20;;;2.30;;
19645;SDS011;9971;52.446;13.452;2023-04-24T23:10:14;2.25;;;2.05;;
19645;SDS011;9971;52.446;13.452;2023-04-24T23:15:16;3.55;;;2.25;;
19645;SDS011;9971;52.446;13.452;2023-04-24T23:20:20;3.27;;;2.10;;
19645;SDS011;9971;52.446;13.452;2023-04-24T23:25:21;1.87;;;1.77;;
19645;SDS011;9971;52.446;13.452;2023-04-24T23:30:23;2.47;;;2.27;;
19645;SDS011;9971;52.446;13.452;2023-04-24T23:35:26;2.47;;;1.60;;
19645;SDS011;9971;52.446;13.452;2023-04-24T23:40:28;3.55;;;2.00;;
19645;SDS011;9971;52.446;13.452;2023-04-24T23:45:30;2.30;;;1.70;;
19645;SDS011;9971;52.446;13.452;2023-04-24T23:50:33;2.70;;;1.82;;
19645;SDS011;9971;52.446;13.452;2023-04-24T23:55:35;1.70;;;1.60;;
